KSBD/SBD METAR and TAF weather

Enter ICAO airport designator
Station Type Date Time Source
KSBD METAR 2018/12/15 20:50 UTC NOAA

KSBD 152050Z 00000KT 7SM SKC 25/M07 A3003


Station Type Date Time Source
KSBD Decoded METAR 2018/12/15 20:50 UTC NOAA

Norton Air Force Base / San Bern, CA, United States (KSBD) 34-06N 117-14W
Dec 15, 2018 - 03:50 PM EST / 2018.12.15 2050 UTC
Wind: Calm:0
Visibility: 7 mile(s):0
Sky conditions: clear
Temperature: 77 F (25 C)
Dew Point: 19 F (-7 C)
Relative Humidity: 11%
Pressure (altimeter): 30.03 in. Hg (1016 hPa)
ob: KSBD 152050Z 00000KT 7SM SKC 25/M07 A3003
cycle: 21

Station Type Date Time Source
KSBD TAF 2018/12/15 18:30 UTC NOAA

TAF KSBD 151729Z 1518/1618 VRB05KT P6SM SKC


Example: see airport list